sensor_id;sensor_type;location;lat;lon;timestamp;pressure;altitude;pressure_sealevel;temperature;humidity
50636;BME280;36598;46.054;11.130;2022-09-21T00:02:07;99566.91;;;14.42;55.94
50636;BME280;36598;46.054;11.130;2022-09-21T00:04:33;99570.78;;;14.48;55.53
50636;BME280;36598;46.054;11.130;2022-09-21T00:06:58;99560.31;;;14.16;55.54
50636;BME280;36598;46.054;11.130;2022-09-21T00:09:23;99561.50;;;14.35;55.58
50636;BME280;36598;46.054;11.130;2022-09-21T00:11:48;99565.00;;;14.39;54.82
50636;BME280;36598;46.054;11.130;2022-09-21T00:14:14;99573.97;;;14.47;54.55
50636;BME280;36598;46.054;11.130;2022-09-21T00:16:40;99575.25;;;14.78;54.13
50636;BME280;36598;46.054;11.130;2022-09-21T00:19:06;99570.91;;;14.77;54.10
50636;BME280;36598;46.054;11.130;2022-09-21T00:21:31;99563.44;;;14.91;53.59
50636;BME280;36598;46.054;11.130;2022-09-21T00:23:58;99575.97;;;14.83;53.71
50636;BME280;36598;46.054;11.130;2022-09-21T00:26:24;99566.31;;;15.03;53.30
50636;BME280;36598;46.054;11.130;2022-09-21T00:28:53;99576.47;;;14.94;52.98
50636;BME280;36598;46.054;11.130;2022-09-21T00:31:19;99569.09;;;15.03;52.40
50636;BME280;36598;46.054;11.130;2022-09-21T00:33:44;99574.91;;;14.76;53.38
50636;BME280;36598;46.054;11.130;2022-09-21T00:36:11;99583.69;;;14.59;53.01
50636;BME280;36598;46.054;11.130;2022-09-21T00:38:37;99579.38;;;14.90;52.05
50636;BME280;36598;46.054;11.130;2022-09-21T00:41:03;99587.09;;;14.66;52.89
50636;BME280;36598;46.054;11.130;2022-09-21T00:43:28;99580.41;;;14.80;52.37
50636;BME280;36598;46.054;11.130;2022-09-21T00:46:04;99575.44;;;14.71;52.56
50636;BME280;36598;46.054;11.130;2022-09-21T00:48:30;99578.94;;;14.92;51.71
50636;BME280;36598;46.054;11.130;2022-09-21T00:50:58;99581.34;;;14.90;51.57
50636;BME280;36598;46.054;11.130;2022-09-21T00:53:25;99586.31;;;14.98;51.31
50636;BME280;36598;46.054;11.130;2022-09-21T00:55:53;99580.06;;;14.78;51.90
50636;BME280;36598;46.054;11.130;2022-09-21T00:58:21;99584.25;;;14.86;52.24
50636;BME280;36598;46.054;11.130;2022-09-21T01:00:49;99586.03;;;14.76;53.13
50636;BME280;36598;46.054;11.130;2022-09-21T01:03:14;99588.13;;;14.72;52.59
50636;BME280;36598;46.054;11.130;2022-09-21T01:05:40;99581.94;;;14.48;52.89
50636;BME280;36598;46.054;11.130;2022-09-21T01:08:05;99586.03;;;14.60;52.77
50636;BME280;36598;46.054;11.130;2022-09-21T01:10:34;99583.50;;;14.49;52.72
50636;BME280;36598;46.054;11.130;2022-09-21T01:13:36;99588.19;;;14.52;52.57
50636;BME280;36598;46.054;11.130;2022-09-21T01:15:57;99586.84;;;14.21;53.54
50636;BME280;36598;46.054;11.130;2022-09-21T01:31:21;99596.09;;;14.18;53.97
50636;BME280;36598;46.054;11.130;2022-09-21T01:33:50;99596.84;;;13.78;54.80
50636;BME280;36598;46.054;11.130;2022-09-21T01:36:18;99598.56;;;14.12;53.51
50636;BME280;36598;46.054;11.130;2022-09-21T01:38:47;99597.28;;;13.77;54.87
50636;BME280;36598;46.054;11.130;2022-09-21T01:41:14;99601.00;;;14.10;53.15
50636;BME280;36598;46.054;11.130;2022-09-21T01:43:44;99601.78;;;13.91;54.21
50636;BME280;36598;46.054;11.130;2022-09-21T01:46:12;99602.28;;;13.86;53.17
50636;BME280;36598;46.054;11.130;2022-09-21T01:48:40;99598.75;;;13.62;53.25
50636;BME280;36598;46.054;11.130;2022-09-21T01:51:09;99593.16;;;14.05;52.80
50636;BME280;36598;46.054;11.130;2022-09-21T01:53:40;99599.72;;;13.95;52.35
50636;BME280;36598;46.054;11.130;2022-09-21T01:56:09;99596.59;;;13.93;52.40
50636;BME280;36598;46.054;11.130;2022-09-21T02:01:05;99606.84;;;13.96;52.21
50636;BME280;36598;46.054;11.130;2022-09-21T02:06:13;99604.44;;;13.98;50.11
50636;BME280;36598;46.054;11.130;2022-09-21T02:08:39;99608.78;;;13.79;50.01
50636;BME280;36598;46.054;11.130;2022-09-21T02:11:05;99592.16;;;13.75;49.73
50636;BME280;36598;46.054;11.130;2022-09-21T02:13:32;99600.84;;;13.77;49.06
50636;BME280;36598;46.054;11.130;2022-09-21T02:21:08;99614.41;;;13.32;51.31
50636;BME280;36598;46.054;11.130;2022-09-21T02:23:37;99601.63;;;13.58;50.69
50636;BME280;36598;46.054;11.130;2022-09-21T02:31:12;99609.91;;;13.82;49.73
50636;BME280;36598;46.054;11.130;2022-09-21T02:33:56;99614.66;;;13.61;49.23
50636;BME280;36598;46.054;11.130;2022-09-21T02:39:15;99617.69;;;13.70;49.45
50636;BME280;36598;46.054;11.130;2022-09-21T02:42:00;99613.41;;;13.42;50.12
50636;BME280;36598;46.054;11.130;2022-09-21T02:44:30;99622.97;;;13.41;50.68
50636;BME280;36598;46.054;11.130;2022-09-21T02:47:02;99621.72;;;13.66;50.57
50636;BME280;36598;46.054;11.130;2022-09-21T02:49:32;99619.50;;;13.57;49.76
50636;BME280;36598;46.054;11.130;2022-09-21T02:52:00;99630.75;;;13.50;50.67
50636;BME280;36598;46.054;11.130;2022-09-21T02:54:28;99637.38;;;13.56;50.56
50636;BME280;36598;46.054;11.130;2022-09-21T02:56:54;99633.38;;;13.37;50.62
50636;BME280;36598;46.054;11.130;2022-09-21T02:59:20;99629.38;;;13.82;49.82
50636;BME280;36598;46.054;11.130;2022-09-21T03:01:47;99636.50;;;13.63;49.74
50636;BME280;36598;46.054;11.130;2022-09-21T03:04:13;99630.94;;;13.83;49.75
50636;BME280;36598;46.054;11.130;2022-09-21T03:06:38;99637.88;;;13.51;50.49
50636;BME280;36598;46.054;11.130;2022-09-21T03:09:03;99639.16;;;13.90;49.53
50636;BME280;36598;46.054;11.130;2022-09-21T03:11:29;99637.88;;;13.94;49.31
50636;BME280;36598;46.054;11.130;2022-09-21T03:13:54;99634.38;;;13.90;48.91
50636;BME280;36598;46.054;11.130;2022-09-21T03:16:20;99653.34;;;13.75;50.23
50636;BME280;36598;46.054;11.130;2022-09-21T03:18:46;99651.53;;;13.65;50.41
50636;BME280;36598;46.054;11.130;2022-09-21T03:21:12;99657.34;;;13.51;50.82
50636;BME280;36598;46.054;11.130;2022-09-21T03:23:38;99665.13;;;13.60;50.78
50636;BME280;36598;46.054;11.130;2022-09-21T03:26:03;99670.28;;;13.38;51.74
50636;BME280;36598;46.054;11.130;2022-09-21T03:28:29;99671.28;;;13.47;51.78
50636;BME280;36598;46.054;11.130;2022-09-21T03:30:54;99669.72;;;13.46;52.04
50636;BME280;36598;46.054;11.130;2022-09-21T03:33:19;99672.78;;;13.01;52.26
50636;BME280;36598;46.054;11.130;2022-09-21T03:35:46;99675.41;;;13.39;51.76
50636;BME280;36598;46.054;11.130;2022-09-21T03:38:11;99676.81;;;13.27;52.24
50636;BME280;36598;46.054;11.130;2022-09-21T03:40:37;99679.22;;;13.49;52.55
50636;BME280;36598;46.054;11.130;2022-09-21T03:43:02;99681.63;;;13.47;52.24
50636;BME280;36598;46.054;11.130;2022-09-21T03:45:28;99689.25;;;13.66;52.65
50636;BME280;36598;46.054;11.130;2022-09-21T03:47:57;99681.47;;;13.58;52.72
50636;BME280;36598;46.054;11.130;2022-09-21T03:50:26;99688.75;;;13.48;53.25
50636;BME280;36598;46.054;11.130;2022-09-21T03:52:52;99686.41;;;13.70;52.72
50636;BME280;36598;46.054;11.130;2022-09-21T03:55:18;99698.16;;;13.58;52.69
50636;BME280;36598;46.054;11.130;2022-09-21T03:57:43;99694.09;;;13.62;53.04
50636;BME280;36598;46.054;11.130;2022-09-21T04:02:47;99700.75;;;13.45;53.57
50636;BME280;36598;46.054;11.130;2022-09-21T04:05:13;99703.19;;;13.12;54.72
50636;BME280;36598;46.054;11.130;2022-09-21T04:07:39;99697.53;;;12.62;55.07
50636;BME280;36598;46.054;11.130;2022-09-21T04:10:05;99711.56;;;13.09;54.40
50636;BME280;36598;46.054;11.130;2022-09-21T04:12:34;99707.91;;;13.15;54.42
50636;BME280;36598;46.054;11.130;2022-09-21T04:15:00;99713.13;;;12.83;54.46
50636;BME280;36598;46.054;11.130;2022-09-21T04:17:26;99709.06;;;12.91;54.44
50636;BME280;36598;46.054;11.130;2022-09-21T04:19:51;99711.56;;;13.09;53.88
50636;BME280;36598;46.054;11.130;2022-09-21T04:22:16;99715.13;;;12.82;52.98
50636;BME280;36598;46.054;11.130;2022-09-21T04:24:42;99716.88;;;12.69;53.80
50636;BME280;36598;46.054;11.130;2022-09-21T04:27:08;99711.56;;;12.51;54.30
50636;BME280;36598;46.054;11.130;2022-09-21T04:29:34;99721.78;;;12.58;53.47
50636;BME280;36598;46.054;11.130;2022-09-21T04:32:00;99733.22;;;12.94;52.61
50636;BME280;36598;46.054;11.130;2022-09-21T04:34:25;99734.63;;;13.06;52.77
50636;BME280;36598;46.054;11.130;2022-09-21T04:36:50;99737.88;;;13.00;53.11
50636;BME280;36598;46.054;11.130;2022-09-21T04:39:17;99740.91;;;13.10;53.03
50636;BME280;36598;46.054;11.130;2022-09-21T04:41:43;99741.56;;;12.94;52.53
50636;BME280;36598;46.054;11.130;2022-09-21T04:44:08;99746.44;;;13.13;52.94
50636;BME280;36598;46.054;11.130;2022-09-21T04:46:33;99745.66;;;13.13;53.67
50636;BME280;36598;46.054;11.130;2022-09-21T04:48:58;99752.19;;;13.30;53.07
50636;BME280;36598;46.054;11.130;2022-09-21T04:51:24;99747.78;;;12.71;53.99
50636;BME280;36598;46.054;11.130;2022-09-21T04:53:49;99747.22;;;12.52;53.58
50636;BME280;36598;46.054;11.130;2022-09-21T04:56:15;99753.97;;;12.86;52.54
50636;BME280;36598;46.054;11.130;2022-09-21T04:58:40;99760.72;;;13.15;52.99
50636;BME280;36598;46.054;11.130;2022-09-21T05:01:06;99756.91;;;13.33;52.71
50636;BME280;36598;46.054;11.130;2022-09-21T05:03:31;99758.38;;;13.10;53.27
50636;BME280;36598;46.054;11.130;2022-09-21T05:05:56;99756.19;;;12.98;54.36
50636;BME280;36598;46.054;11.130;2022-09-21T05:08:23;99765.31;;;13.29;53.14
50636;BME280;36598;46.054;11.130;2022-09-21T05:11:07;99766.00;;;13.06;54.37
50636;BME280;36598;46.054;11.130;2022-09-21T05:13:32;99769.78;;;12.89;53.51
50636;BME280;36598;46.054;11.130;2022-09-21T05:15:58;99767.19;;;13.05;53.52
50636;BME280;36598;46.054;11.130;2022-09-21T05:18:23;99771.38;;;12.56;54.33
50636;BME280;36598;46.054;11.130;2022-09-21T05:20:55;99780.28;;;12.74;54.39
50636;BME280;36598;46.054;11.130;2022-09-21T05:23:20;99784.16;;;12.80;53.52
50636;BME280;36598;46.054;11.130;2022-09-21T05:25:46;99782.75;;;12.99;53.50
50636;BME280;36598;46.054;11.130;2022-09-21T05:28:11;99787.91;;;12.97;53.23
50636;BME280;36598;46.054;11.130;2022-09-21T05:30:36;99786.78;;;13.25;51.73
50636;BME280;36598;46.054;11.130;2022-09-21T05:33:02;99795.50;;;13.27;52.37
50636;BME280;36598;46.054;11.130;2022-09-21T05:35:36;99796.69;;;12.95;52.77
50636;BME280;36598;46.054;11.130;2022-09-21T05:38:15;99795.13;;;12.94;52.03
50636;BME280;36598;46.054;11.130;2022-09-21T05:40:42;99801.47;;;13.25;51.79
50636;BME280;36598;46.054;11.130;2022-09-21T05:43:07;99802.22;;;13.30;51.24
50636;BME280;36598;46.054;11.130;2022-09-21T05:45:33;99809.81;;;13.22;50.92
50636;BME280;36598;46.054;11.130;2022-09-21T05:58:15;99819.53;;;13.68;49.14
50636;BME280;36598;46.054;11.130;2022-09-21T06:03:31;99828.06;;;13.81;49.24
50636;BME280;36598;46.054;11.130;2022-09-21T06:05:56;99831.41;;;13.95;49.51
50636;BME280;36598;46.054;11.130;2022-09-21T06:08:22;99825.19;;;13.88;49.46
50636;BME280;36598;46.054;11.130;2022-09-21T06:10:48;99830.81;;;13.84;49.54
50636;BME280;36598;46.054;11.130;2022-09-21T06:13:13;99829.81;;;13.71;48.59
50636;BME280;36598;46.054;11.130;2022-09-21T06:15:39;99825.56;;;14.13;47.91
50636;BME280;36598;46.054;11.130;2022-09-21T06:18:04;99828.91;;;13.77;49.64
50636;BME280;36598;46.054;11.130;2022-09-21T06:20:30;99832.44;;;14.05;48.66
50636;BME280;36598;46.054;11.130;2022-09-21T06:23:13;99827.44;;;13.96;47.91
50636;BME280;36598;46.054;11.130;2022-09-21T06:25:39;99832.44;;;14.05;48.05
50636;BME280;36598;46.054;11.130;2022-09-21T06:28:05;99839.81;;;13.92;47.87
50636;BME280;36598;46.054;11.130;2022-09-21T06:30:33;99841.75;;;13.95;47.73
50636;BME280;36598;46.054;11.130;2022-09-21T06:33:02;99843.34;;;14.19;47.62
50636;BME280;36598;46.054;11.130;2022-09-21T06:35:28;99845.97;;;14.73;47.15
50636;BME280;36598;46.054;11.130;2022-09-21T06:37:57;99837.78;;;15.42;45.57
50636;BME280;36598;46.054;11.130;2022-09-21T06:40:23;99839.06;;;16.23;43.69
50636;BME280;36598;46.054;11.130;2022-09-21T06:42:49;99828.84;;;16.49;43.41
50636;BME280;36598;46.054;11.130;2022-09-21T06:45:14;99829.03;;;17.00;41.51
50636;BME280;36598;46.054;11.130;2022-09-21T06:47:45;99825.31;;;17.45;39.64
50636;BME280;36598;46.054;11.130;2022-09-21T06:50:10;99826.88;;;17.46;39.36
50636;BME280;36598;46.054;11.130;2022-09-21T06:52:35;99826.00;;;17.49;39.53
50636;BME280;36598;46.054;11.130;2022-09-21T06:55:02;99825.25;;;17.74;37.57
50636;BME280;36598;46.054;11.130;2022-09-21T06:57:28;99825.09;;;18.03;37.69
50636;BME280;36598;46.054;11.130;2022-09-21T06:59:53;99826.72;;;18.73;36.39
50636;BME280;36598;46.054;11.130;2022-09-21T07:02:18;99829.22;;;18.59;36.58
50636;BME280;36598;46.054;11.130;2022-09-21T07:04:43;99834.41;;;18.82;36.38
50636;BME280;36598;46.054;11.130;2022-09-21T07:07:09;99829.75;;;18.88;35.90
50636;BME280;36598;46.054;11.130;2022-09-21T07:09:34;99829.22;;;19.24;34.89
50636;BME280;36598;46.054;11.130;2022-09-21T07:11:59;99832.22;;;19.30;34.90
50636;BME280;36598;46.054;11.130;2022-09-21T07:14:24;99827.06;;;19.29;35.19
50636;BME280;36598;46.054;11.130;2022-09-21T07:16:50;99826.41;;;19.87;34.39
50636;BME280;36598;46.054;11.130;2022-09-21T07:19:16;99830.97;;;19.93;33.71
50636;BME280;36598;46.054;11.130;2022-09-21T07:21:42;99830.66;;;19.60;33.66
50636;BME280;36598;46.054;11.130;2022-09-21T07:24:07;99823.44;;;19.90;33.50
50636;BME280;36598;46.054;11.130;2022-09-21T07:26:33;99830.84;;;20.15;32.88
50636;BME280;36598;46.054;11.130;2022-09-21T07:28:58;99832.78;;;19.47;33.99
50636;BME280;36598;46.054;11.130;2022-09-21T07:31:23;99832.72;;;20.00;33.69
50636;BME280;36598;46.054;11.130;2022-09-21T07:33:48;99828.56;;;20.50;33.04
50636;BME280;36598;46.054;11.130;2022-09-21T07:36:14;99827.19;;;20.83;32.64
50636;BME280;36598;46.054;11.130;2022-09-21T07:38:42;99824.81;;;21.09;31.69
50636;BME280;36598;46.054;11.130;2022-09-21T07:41:08;99821.50;;;21.10;31.23
50636;BME280;36598;46.054;11.130;2022-09-21T07:43:34;99824.63;;;21.21;31.39
50636;BME280;36598;46.054;11.130;2022-09-21T07:46:00;99829.41;;;21.48;31.30
50636;BME280;36598;46.054;11.130;2022-09-21T07:48:28;99836.09;;;21.60;31.02
50636;BME280;36598;46.054;11.130;2022-09-21T07:50:54;99826.22;;;21.98;30.05
50636;BME280;36598;46.054;11.130;2022-09-21T07:53:24;99832.41;;;21.26;30.74
50636;BME280;36598;46.054;11.130;2022-09-21T07:55:50;99829.00;;;21.13;31.67
50636;BME280;36598;46.054;11.130;2022-09-21T07:58:15;99834.22;;;21.57;30.90
50636;BME280;36598;46.054;11.130;2022-09-21T08:01:03;99825.47;;;22.21;30.01
50636;BME280;36598;46.054;11.130;2022-09-21T08:03:30;99828.44;;;21.94;30.00
50636;BME280;36598;46.054;11.130;2022-09-21T08:05:57;99829.91;;;22.13;29.72
50636;BME280;36598;46.054;11.130;2022-09-21T08:08:22;99827.59;;;22.89;28.54
50636;BME280;36598;46.054;11.130;2022-09-21T08:10:48;99828.53;;;22.95;28.00
50636;BME280;36598;46.054;11.130;2022-09-21T08:13:13;99826.50;;;22.72;28.51
50636;BME280;36598;46.054;11.130;2022-09-21T08:15:38;99821.34;;;23.09;27.19
50636;BME280;36598;46.054;11.130;2022-09-21T08:18:03;99831.34;;;23.10;27.51
50636;BME280;36598;46.054;11.130;2022-09-21T08:20:31;99825.50;;;23.73;26.92
50636;BME280;36598;46.054;11.130;2022-09-21T08:22:56;99821.81;;;23.52;26.55
50636;BME280;36598;46.054;11.130;2022-09-21T08:25:21;99818.41;;;24.18;26.25
50636;BME280;36598;46.054;11.130;2022-09-21T08:27:47;99815.91;;;23.85;25.56
50636;BME280;36598;46.054;11.130;2022-09-21T08:30:13;99819.28;;;23.69;25.62
50636;BME280;36598;46.054;11.130;2022-09-21T08:32:39;99817.47;;;24.07;25.33
50636;BME280;36598;46.054;11.130;2022-09-21T08:35:05;99808.81;;;24.31;26.02
50636;BME280;36598;46.054;11.130;2022-09-21T08:37:30;99808.53;;;24.69;24.74
50636;BME280;36598;46.054;11.130;2022-09-21T08:39:57;99802.44;;;25.03;24.73
50636;BME280;36598;46.054;11.130;2022-09-21T08:42:42;99804.97;;;25.01;24.54
50636;BME280;36598;46.054;11.130;2022-09-21T08:45:15;99798.69;;;25.11;24.97
50636;BME280;36598;46.054;11.130;2022-09-21T08:47:45;99803.38;;;25.52;24.18
50636;BME280;36598;46.054;11.130;2022-09-21T08:50:34;99805.13;;;26.18;23.56
50636;BME280;36598;46.054;11.130;2022-09-21T08:53:00;99799.34;;;25.95;23.42
50636;BME280;36598;46.054;11.130;2022-09-21T08:55:27;99785.81;;;26.22;22.94
50636;BME280;36598;46.054;11.130;2022-09-21T08:57:52;99794.03;;;26.20;23.43
50636;BME280;36598;46.054;11.130;2022-09-21T09:00:18;99791.16;;;26.09;23.58
50636;BME280;36598;46.054;11.130;2022-09-21T09:02:59;99781.63;;;26.12;23.39
50636;BME280;36598;46.054;11.130;2022-09-21T09:18:14;99769.25;;;26.86;21.79
50636;BME280;36598;46.054;11.130;2022-09-21T09:20:44;99772.34;;;26.88;22.08
50636;BME280;36598;46.054;11.130;2022-09-21T09:25:42;99765.16;;;27.09;20.98
50636;BME280;36598;46.054;11.130;2022-09-21T09:30:38;99754.00;;;26.66;20.58
50636;BME280;36598;46.054;11.130;2022-09-21T09:38:04;99751.47;;;27.08;21.21
50636;BME280;36598;46.054;11.130;2022-09-21T09:40:52;99736.72;;;25.99;20.45
50636;BME280;36598;46.054;11.130;2022-09-21T09:46:14;99733.19;;;26.15;21.17
50636;BME280;36598;46.054;11.130;2022-09-21T09:51:10;99732.09;;;27.06;20.51
50636;BME280;36598;46.054;11.130;2022-09-21T09:53:36;99719.44;;;26.90;20.75
50636;BME280;36598;46.054;11.130;2022-09-21T09:56:01;99722.78;;;26.66;20.58
50636;BME280;36598;46.054;11.130;2022-09-21T10:00:58;99726.41;;;26.73;19.99
50636;BME280;36598;46.054;11.130;2022-09-21T10:03:24;99716.81;;;26.59;19.24
50636;BME280;36598;46.054;11.130;2022-09-21T10:05:50;99714.72;;;25.40;20.00
50636;BME280;36598;46.054;11.130;2022-09-21T10:10:59;99705.91;;;26.35;18.62
50636;BME280;36598;46.054;11.130;2022-09-21T10:15:51;99706.75;;;27.76;18.39
50636;BME280;36598;46.054;11.130;2022-09-21T10:18:25;99702.88;;;27.45;18.25
50636;BME280;36598;46.054;11.130;2022-09-21T10:23:36;99691.34;;;28.07;18.79
50636;BME280;36598;46.054;11.130;2022-09-21T10:26:07;99686.44;;;28.07;17.87
50636;BME280;36598;46.054;11.130;2022-09-21T10:28:32;99678.25;;;28.45;18.16
50636;BME280;36598;46.054;11.130;2022-09-21T10:31:17;99674.47;;;27.51;18.15
50636;BME280;36598;46.054;11.130;2022-09-21T10:36:25;99671.44;;;27.04;17.49
50636;BME280;36598;46.054;11.130;2022-09-21T10:38:51;99669.78;;;26.24;17.39
50636;BME280;36598;46.054;11.130;2022-09-21T10:41:16;99669.63;;;26.61;17.38
50636;BME280;36598;46.054;11.130;2022-09-21T10:43:42;99666.78;;;27.23;16.67
50636;BME280;36598;46.054;11.130;2022-09-21T10:46:08;99657.16;;;27.54;17.27
50636;BME280;36598;46.054;11.130;2022-09-21T10:48:34;99657.34;;;27.79;17.65
50636;BME280;36598;46.054;11.130;2022-09-21T10:50:59;99661.75;;;27.74;17.31
50636;BME280;36598;46.054;11.130;2022-09-21T10:53:26;99645.00;;;28.17;17.37
50636;BME280;36598;46.054;11.130;2022-09-21T10:58:22;99657.34;;;27.79;17.10
50636;BME280;36598;46.054;11.130;2022-09-21T11:00:48;99651.03;;;28.03;17.23
50636;BME280;36598;46.054;11.130;2022-09-21T11:06:03;99644.81;;;27.01;17.50
50636;BME280;36598;46.054;11.130;2022-09-21T11:11:26;99644.03;;;26.39;17.93
50636;BME280;36598;46.054;11.130;2022-09-21T11:14:03;99638.94;;;25.29;18.61
50636;BME280;36598;46.054;11.130;2022-09-21T11:16:32;99631.31;;;26.12;18.68
50636;BME280;36598;46.054;11.130;2022-09-21T11:19:46;99625.34;;;25.93;18.00
50636;BME280;36598;46.054;11.130;2022-09-21T11:26:45;99619.59;;;24.85;19.50
50636;BME280;36598;46.054;11.130;2022-09-21T11:29:32;99617.06;;;25.30;19.10
50636;BME280;36598;46.054;11.130;2022-09-21T11:37:16;99602.69;;;25.93;17.04
50636;BME280;36598;46.054;11.130;2022-09-21T11:57:43;99575.00;;;25.11;18.31
50636;BME280;36598;46.054;11.130;2022-09-21T12:00:19;99574.03;;;24.83;18.12
50636;BME280;36598;46.054;11.130;2022-09-21T12:15:35;99558.94;;;24.97;17.73
50636;BME280;36598;46.054;11.130;2022-09-21T12:22:59;99542.09;;;25.19;19.52
50636;BME280;36598;46.054;11.130;2022-09-21T12:25:39;99545.91;;;24.73;19.07
50636;BME280;36598;46.054;11.130;2022-09-21T12:28:06;99539.91;;;24.97;18.74
50636;BME280;36598;46.054;11.130;2022-09-21T12:30:34;99551.47;;;24.57;18.12
50636;BME280;36598;46.054;11.130;2022-09-21T12:38:11;99540.13;;;24.25;19.13
50636;BME280;36598;46.054;11.130;2022-09-21T12:43:12;99523.81;;;23.62;19.17
50636;BME280;36598;46.054;11.130;2022-09-21T12:45:40;99535.34;;;23.18;20.63
50636;BME280;36598;46.054;11.130;2022-09-21T12:48:10;99525.31;;;23.58;21.23
50636;BME280;36598;46.054;11.130;2022-09-21T12:50:40;99529.41;;;23.57;21.78
50636;BME280;36598;46.054;11.130;2022-09-21T12:53:15;99516.25;;;23.74;22.63
50636;BME280;36598;46.054;11.130;2022-09-21T12:58:49;99515.50;;;23.33;23.30
50636;BME280;36598;46.054;11.130;2022-09-21T13:04:03;99515.97;;;22.55;24.50
50636;BME280;36598;46.054;11.130;2022-09-21T13:09:16;99511.84;;;22.36;25.36
50636;BME280;36598;46.054;11.130;2022-09-21T13:14:14;99504.69;;;22.55;25.66
50636;BME280;36598;46.054;11.130;2022-09-21T13:16:41;99487.38;;;22.62;25.38
50636;BME280;36598;46.054;11.130;2022-09-21T13:21:37;99492.59;;;22.19;25.80
50636;BME280;36598;46.054;11.130;2022-09-21T13:24:03;99483.66;;;22.21;26.08
50636;BME280;36598;46.054;11.130;2022-09-21T13:34:21;99478.69;;;22.31;27.11
50636;BME280;36598;46.054;11.130;2022-09-21T13:39:32;99475.69;;;21.90;27.82
50636;BME280;36598;46.054;11.130;2022-09-21T13:41:57;99472.97;;;21.81;28.16
50636;BME280;36598;46.054;11.130;2022-09-21T13:47:04;99468.59;;;22.24;28.56
50636;BME280;36598;46.054;11.130;2022-09-21T13:49:41;99461.81;;;22.51;27.93
50636;BME280;36598;46.054;11.130;2022-09-21T13:57:20;99463.53;;;22.28;28.84
50636;BME280;36598;46.054;11.130;2022-09-21T13:59:59;99469.09;;;22.58;28.80
50636;BME280;36598;46.054;11.130;2022-09-21T14:02:34;99461.41;;;22.23;29.05
50636;BME280;36598;46.054;11.130;2022-09-21T14:07:32;99468.28;;;22.37;29.63
50636;BME280;36598;46.054;11.130;2022-09-21T14:09:59;99465.28;;;22.11;30.06
50636;BME280;36598;46.054;11.130;2022-09-21T14:12:30;99456.63;;;21.99;30.25
50636;BME280;36598;46.054;11.130;2022-09-21T14:17:40;99469.38;;;21.80;30.71
50636;BME280;36598;46.054;11.130;2022-09-21T14:28:13;99463.53;;;21.69;31.72
50636;BME280;36598;46.054;11.130;2022-09-21T14:30:46;99456.13;;;22.01;31.39
50636;BME280;36598;46.054;11.130;2022-09-21T14:33:47;99472.84;;;21.75;31.49
50636;BME280;36598;46.054;11.130;2022-09-21T14:36:07;99468.88;;;21.82;31.39
50636;BME280;36598;46.054;11.130;2022-09-21T14:38:44;99481.78;;;21.73;31.52
50636;BME280;36598;46.054;11.130;2022-09-21T14:41:14;99471.31;;;21.89;31.61
50636;BME280;36598;46.054;11.130;2022-09-21T14:43:42;99466.41;;;21.45;31.64
50636;BME280;36598;46.054;11.130;2022-09-21T14:46:23;99480.13;;;21.52;32.18
50636;BME280;36598;46.054;11.130;2022-09-21T14:54:15;99470.22;;;21.18;32.71
50636;BME280;36598;46.054;11.130;2022-09-21T14:56:55;99476.44;;;20.98;33.20
50636;BME280;36598;46.054;11.130;2022-09-21T15:05:35;99478.03;;;20.75;34.47
50636;BME280;36598;46.054;11.130;2022-09-21T15:11:14;99482.91;;;20.32;35.22
50636;BME280;36598;46.054;11.130;2022-09-21T15:19:04;99483.66;;;20.33;35.45
50636;BME280;36598;46.054;11.130;2022-09-21T15:21:34;99480.50;;;20.49;35.55
50636;BME280;36598;46.054;11.130;2022-09-21T15:24:09;99473.38;;;20.30;35.73
50636;BME280;36598;46.054;11.130;2022-09-21T15:26:37;99485.47;;;20.54;35.60
50636;BME280;36598;46.054;11.130;2022-09-21T15:29:04;99482.00;;;20.59;35.36
50636;BME280;36598;46.054;11.130;2022-09-21T15:31:41;99486.88;;;20.07;35.67
50636;BME280;36598;46.054;11.130;2022-09-21T15:34:06;99482.72;;;19.93;36.38
50636;BME280;36598;46.054;11.130;2022-09-21T15:36:36;99486.31;;;19.85;36.21
50636;BME280;36598;46.054;11.130;2022-09-21T15:39:02;99484.63;;;19.50;36.73
50636;BME280;36598;46.054;11.130;2022-09-21T15:44:12;99488.84;;;19.46;36.83
50636;BME280;36598;46.054;11.130;2022-09-21T15:46:38;99501.31;;;19.36;36.93
50636;BME280;36598;46.054;11.130;2022-09-21T15:49:09;99498.06;;;19.19;37.53
50636;BME280;36598;46.054;11.130;2022-09-21T15:51:35;99507.09;;;19.23;37.36
50636;BME280;36598;46.054;11.130;2022-09-21T15:56:45;99505.19;;;19.01;37.76
50636;BME280;36598;46.054;11.130;2022-09-21T15:59:11;99507.31;;;18.88;38.13
50636;BME280;36598;46.054;11.130;2022-09-21T16:01:41;99514.19;;;18.87;38.12
50636;BME280;36598;46.054;11.130;2022-09-21T16:04:10;99511.38;;;18.78;38.44
50636;BME280;36598;46.054;11.130;2022-09-21T16:06:37;99510.75;;;18.83;38.24
50636;BME280;36598;46.054;11.130;2022-09-21T16:11:47;99529.72;;;18.70;38.53
50636;BME280;36598;46.054;11.130;2022-09-21T16:14:13;99533.28;;;18.70;38.55
50636;BME280;36598;46.054;11.130;2022-09-21T16:19:38;99528.09;;;18.60;38.87
50636;BME280;36598;46.054;11.130;2022-09-21T16:22:03;99539.72;;;18.49;39.02
50636;BME280;36598;46.054;11.130;2022-09-21T16:24:29;99547.72;;;18.60;38.79
50636;BME280;36598;46.054;11.130;2022-09-21T16:26:55;99548.50;;;18.60;38.96
50636;BME280;36598;46.054;11.130;2022-09-21T16:29:22;99545.63;;;18.42;39.63
50636;BME280;36598;46.054;11.130;2022-09-21T16:31:49;99551.16;;;18.33;39.59
50636;BME280;36598;46.054;11.130;2022-09-21T16:34:19;99555.84;;;18.36;39.61
50636;BME280;36598;46.054;11.130;2022-09-21T16:36:46;99555.34;;;18.28;39.76
50636;BME280;36598;46.054;11.130;2022-09-21T16:39:13;99565.25;;;18.20;39.68
50636;BME280;36598;46.054;11.130;2022-09-21T16:41:40;99561.69;;;18.19;39.57